createdAt,value
2023-01-20T00:01:23.686Z,-0.19
2023-01-20T00:03:51.839Z,-0.13
2023-01-20T00:06:18.571Z,-0.03
2023-01-20T00:08:45.398Z,0.01
2023-01-20T00:11:13.095Z,-0.08
2023-01-20T00:13:39.939Z,-0.10
2023-01-20T00:16:09.561Z,0.03
2023-01-20T00:18:37.177Z,0.00
2023-01-20T00:21:11.872Z,-0.05
2023-01-20T00:23:40.064Z,-0.01
2023-01-20T00:26:09.224Z,-0.07
2023-01-20T00:28:36.325Z,0.09
2023-01-20T00:31:13.925Z,-0.15
2023-01-20T00:33:40.924Z,0.04
2023-01-20T00:36:11.467Z,0.05
2023-01-20T00:38:38.588Z,-0.03
2023-01-20T00:41:05.719Z,-0.05
2023-01-20T00:43:32.350Z,0.06
2023-01-20T00:45:59.028Z,0.04
2023-01-20T00:48:25.770Z,0.02
2023-01-20T00:50:52.382Z,0.02
2023-01-20T00:53:19.017Z,-0.06
2023-01-20T00:55:45.754Z,-0.05
2023-01-20T00:58:12.348Z,-0.04
2023-01-20T01:00:39.296Z,-0.02
2023-01-20T01:03:06.045Z,0.04
2023-01-20T01:05:33.517Z,0.02
2023-01-20T01:08:00.131Z,-0.03
2023-01-20T01:10:26.870Z,-0.02
2023-01-20T01:12:53.703Z,-0.02
2023-01-20T01:15:20.464Z,0.02
2023-01-20T01:17:47.213Z,0.04
2023-01-20T01:20:14.766Z,0.03
2023-01-20T01:22:41.445Z,-0.03
2023-01-20T01:25:08.340Z,0.04
2023-01-20T01:27:35.337Z,0.05
2023-01-20T01:30:01.987Z,-0.08
2023-01-20T01:32:28.802Z,0.00
2023-01-20T01:34:55.456Z,-0.04
2023-01-20T01:37:22.265Z,0.06
2023-01-20T01:39:48.988Z,0.09
2023-01-20T01:42:18.717Z,0.12
2023-01-20T01:45:10.725Z,0.16
2023-01-20T01:47:48.785Z,0.19
2023-01-20T01:50:21.356Z,-0.01
2023-01-20T01:52:53.295Z,0.16
2023-01-20T01:55:22.613Z,-0.13
2023-01-20T01:57:50.326Z,0.01
2023-01-20T02:00:17.097Z,0.06
2023-01-20T02:02:45.773Z,0.04
2023-01-20T02:05:15.043Z,0.17
2023-01-20T02:07:45.261Z,0.05
2023-01-20T02:10:13.309Z,0.19
2023-01-20T02:12:41.320Z,0.10
2023-01-20T02:15:08.741Z,0.12
2023-01-20T02:18:12.571Z,0.19
2023-01-20T02:20:52.116Z,0.19
2023-01-20T02:23:43.588Z,0.19
2023-01-20T02:26:32.116Z,0.18
2023-01-20T02:29:35.584Z,0.20
2023-01-20T02:32:32.421Z,0.22
2023-01-20T02:35:05.151Z,0.25
2023-01-20T02:37:37.853Z,0.25
2023-01-20T02:40:10.426Z,0.23
2023-01-20T02:42:52.956Z,0.25
2023-01-20T02:45:28.316Z,0.16
2023-01-20T02:48:11.615Z,0.25
2023-01-20T02:51:07.792Z,0.17
2023-01-20T02:53:45.195Z,0.10
2023-01-20T02:56:12.854Z,0.20
2023-01-20T02:58:49.114Z,0.22
2023-01-20T03:01:31.973Z,0.21
2023-01-20T03:04:02.036Z,0.17
2023-01-20T03:06:33.303Z,0.22
2023-01-20T03:09:02.577Z,0.28
2023-01-20T03:11:36.204Z,0.25
2023-01-20T03:14:13.206Z,0.25
2023-01-20T03:16:41.149Z,0.17
2023-01-20T03:19:08.252Z,0.24
2023-01-20T03:21:35.702Z,0.20
2023-01-20T03:24:04.502Z,0.18
2023-01-20T03:26:31.551Z,0.24
2023-01-20T03:28:59.546Z,0.19
2023-01-20T03:31:43.859Z,0.23
2023-01-20T03:34:15.821Z,0.14
2023-01-20T03:36:44.590Z,0.14
2023-01-20T03:39:11.878Z,0.18
2023-01-20T03:41:56.114Z,0.18
2023-01-20T03:44:41.274Z,0.14
2023-01-20T03:47:28.471Z,0.25
2023-01-20T03:50:06.561Z,-0.37
2023-01-20T03:52:50.342Z,0.18
2023-01-20T03:55:25.037Z,0.27
2023-01-20T03:58:08.357Z,0.23
2023-01-20T04:00:39.313Z,0.28
2023-01-20T04:03:10.921Z,0.22
2023-01-20T04:05:39.101Z,0.21
2023-01-20T04:08:09.711Z,0.18
2023-01-20T04:10:40.849Z,0.20
2023-01-20T04:13:07.589Z,0.30
2023-01-20T04:15:39.911Z,0.30
2023-01-20T04:18:12.800Z,0.42
2023-01-20T04:20:40.254Z,0.40
2023-01-20T04:23:12.876Z,0.24
2023-01-20T04:25:39.544Z,0.30
2023-01-20T04:28:06.203Z,0.30
2023-01-20T04:30:33.066Z,0.35
2023-01-20T04:32:59.680Z,0.29
2023-01-20T04:35:26.277Z,0.28
2023-01-20T04:37:53.037Z,0.22
2023-01-20T04:40:19.767Z,0.25
2023-01-20T04:42:46.589Z,0.25
2023-01-20T04:45:17.313Z,0.26
2023-01-20T04:47:44.771Z,0.19
2023-01-20T04:50:12.844Z,0.20
2023-01-20T04:52:39.682Z,0.12
2023-01-20T04:55:06.723Z,0.28
2023-01-20T04:57:33.407Z,0.29
2023-01-20T05:00:00.250Z,0.29
2023-01-20T05:02:27.064Z,0.28
2023-01-20T05:04:53.750Z,0.22
2023-01-20T05:07:20.523Z,0.28
2023-01-20T05:09:47.269Z,0.09
2023-01-20T05:12:13.890Z,0.20
2023-01-20T05:14:42.561Z,0.38
2023-01-20T05:17:09.236Z,0.47
2023-01-20T05:19:36.011Z,0.35
2023-01-20T05:22:03.199Z,0.18
2023-01-20T05:24:30.910Z,0.21
2023-01-20T05:27:00.868Z,0.37
2023-01-20T05:29:28.814Z,0.20
2023-01-20T05:31:56.047Z,0.33
2023-01-20T05:34:22.943Z,0.30
2023-01-20T05:36:54.200Z,0.27
2023-01-20T05:39:21.782Z,0.29
2023-01-20T05:41:48.783Z,0.24
2023-01-20T05:47:00.883Z,-0.20
2023-01-20T05:49:27.771Z,0.21
2023-01-20T05:51:54.620Z,0.21
2023-01-20T05:54:37.627Z,0.18
2023-01-20T05:57:05.722Z,-0.36
2023-01-20T05:59:32.363Z,-0.39
2023-01-20T06:01:59.067Z,-0.18
2023-01-20T06:04:25.841Z,-0.05
2023-01-20T06:06:52.565Z,0.01
2023-01-20T06:09:22.624Z,-0.12
2023-01-20T06:11:51.053Z,0.05
2023-01-20T06:14:17.785Z,0.24
2023-01-20T06:16:44.540Z,0.13
2023-01-20T06:19:11.189Z,0.14
2023-01-20T06:21:37.865Z,0.13
2023-01-20T06:24:05.245Z,0.20
2023-01-20T06:26:31.941Z,0.02
2023-01-20T06:29:00.850Z,0.14
2023-01-20T06:31:30.786Z,0.17
2023-01-20T06:33:57.478Z,0.25
2023-01-20T06:36:25.291Z,0.28
2023-01-20T06:38:53.169Z,0.14
2023-01-20T06:41:20.849Z,0.29
2023-01-20T06:43:47.629Z,0.22
2023-01-20T06:46:16.244Z,0.30
2023-01-20T06:48:43.969Z,0.30
2023-01-20T06:51:16.506Z,0.23
2023-01-20T06:53:43.512Z,0.22
2023-01-20T06:56:12.521Z,0.31
2023-01-20T06:58:39.502Z,0.23
2023-01-20T07:01:09.048Z,0.27
2023-01-20T07:03:36.666Z,0.25
2023-01-20T07:06:15.789Z,0.25
2023-01-20T07:08:44.254Z,0.29
2023-01-20T07:11:11.005Z,0.22
2023-01-20T07:13:37.835Z,0.23
2023-01-20T07:16:04.867Z,0.25
2023-01-20T07:18:31.561Z,0.18
2023-01-20T07:20:58.235Z,0.23
2023-01-20T07:23:24.833Z,0.25
2023-01-20T07:26:02.451Z,0.37
2023-01-20T07:28:30.816Z,0.25
2023-01-20T07:31:03.883Z,0.32
2023-01-20T07:33:31.714Z,0.31
2023-01-20T07:36:15.805Z,0.28
2023-01-20T07:38:43.012Z,0.33
2023-01-20T07:41:16.236Z,0.30
2023-01-20T07:43:44.503Z,0.21
2023-01-20T07:46:11.723Z,0.24
2023-01-20T07:48:39.080Z,0.29
2023-01-20T07:51:09.456Z,0.19
2023-01-20T07:53:41.477Z,0.28
2023-01-20T07:56:11.803Z,0.27
2023-01-20T07:58:39.132Z,0.20
2023-01-20T08:01:08.438Z,0.32
2023-01-20T08:03:35.642Z,0.25
2023-01-20T08:06:04.326Z,0.30
2023-01-20T08:08:33.004Z,0.31
2023-01-20T08:11:01.419Z,0.33
2023-01-20T08:13:32.150Z,0.35
2023-01-20T08:16:07.634Z,0.22
2023-01-20T08:18:35.594Z,0.28
2023-01-20T08:21:08.481Z,0.41
2023-01-20T08:23:36.340Z,0.23
2023-01-20T08:26:07.187Z,0.35
2023-01-20T08:28:36.275Z,0.40
2023-01-20T08:31:15.345Z,0.44
2023-01-20T08:33:43.049Z,0.30
2023-01-20T08:36:21.389Z,0.40
2023-01-20T08:38:49.003Z,0.46
2023-01-20T08:41:22.437Z,0.48
2023-01-20T08:43:50.045Z,0.44
2023-01-20T08:46:19.530Z,0.54
2023-01-20T08:48:47.592Z,0.49
2023-01-20T08:51:23.604Z,0.60
2023-01-20T08:53:50.589Z,0.66
2023-01-20T08:56:18.632Z,0.69
2023-01-20T08:58:46.019Z,0.63
2023-01-20T09:01:23.614Z,0.54
2023-01-20T09:04:04.403Z,0.73
2023-01-20T09:06:52.898Z,0.81
2023-01-20T09:09:22.164Z,0.79
2023-01-20T09:11:52.459Z,0.76
2023-01-20T09:14:20.592Z,0.81
2023-01-20T09:16:50.356Z,0.84
2023-01-20T09:20:27.317Z,0.34
2023-01-20T09:22:12.089Z,0.77
2023-01-20T09:24:41.373Z,0.55
2023-01-20T09:27:08.221Z,0.55
2023-01-20T09:29:39.232Z,0.73
2023-01-20T09:32:06.039Z,0.73
2023-01-20T09:34:37.275Z,0.37
2023-01-20T09:37:23.089Z,0.71
2023-01-20T09:40:08.747Z,0.96
2023-01-20T09:43:15.197Z,0.92
2023-01-20T09:46:08.824Z,1.03
2023-01-20T09:49:03.841Z,1.03
2023-01-20T09:52:24.808Z,0.98
2023-01-20T09:54:59.645Z,1.09
2023-01-20T09:57:33.448Z,1.15
2023-01-20T10:00:09.644Z,1.18
2023-01-20T10:02:36.998Z,1.18
2023-01-20T10:05:18.790Z,1.18
2023-01-20T10:08:01.951Z,1.27
2023-01-20T10:10:33.219Z,1.26
2023-01-20T10:13:17.162Z,1.23
2023-01-20T10:15:51.068Z,1.30
2023-01-20T10:18:23.631Z,1.22
2023-01-20T10:21:15.444Z,1.37
2023-01-20T10:24:12.090Z,1.14
2023-01-20T10:26:50.086Z,1.43
2023-01-20T10:29:40.727Z,1.43
2023-01-20T10:32:29.493Z,0.96
2023-01-20T10:35:00.078Z,1.18
2023-01-20T10:37:27.959Z,1.12
2023-01-20T10:40:19.994Z,1.40
2023-01-20T10:42:49.923Z,0.89
2023-01-20T10:45:55.049Z,1.31
2023-01-20T10:48:24.410Z,1.43
2023-01-20T10:52:43.998Z,0.89
2023-01-20T10:55:23.825Z,1.39
2023-01-20T10:57:56.546Z,1.24
2023-01-20T11:00:30.335Z,1.17
2023-01-20T11:03:02.643Z,1.12
2023-01-20T11:05:32.468Z,1.39
2023-01-20T11:08:02.132Z,1.02
2023-01-20T11:11:31.519Z,1.16
2023-01-20T11:14:11.084Z,1.02
2023-01-20T11:16:48.231Z,1.02
2023-01-20T11:19:41.518Z,1.18
2023-01-20T11:25:43.396Z,1.07
2023-01-20T11:31:38.833Z,0.93
2023-01-20T11:34:32.884Z,1.43
2023-01-20T11:37:05.589Z,1.43
2023-01-20T11:39:56.328Z,1.44
2023-01-20T11:42:41.258Z,1.30
2023-01-20T11:45:34.873Z,1.49
2023-01-20T12:00:18.181Z,1.36
2023-01-20T12:03:15.895Z,1.79
2023-01-20T12:14:34.809Z,1.87
2023-01-20T12:17:10.428Z,1.89
2023-01-20T12:23:52.200Z,1.92
2023-01-20T12:26:31.209Z,1.41
2023-01-20T12:31:44.931Z,1.71
2023-01-20T12:34:41.811Z,2.04
2023-01-20T12:37:18.906Z,2.04
2023-01-20T12:40:24.735Z,2.05
2023-01-20T12:43:32.048Z,2.01
2023-01-20T12:46:17.543Z,1.99
2023-01-20T12:49:05.449Z,1.95
2023-01-20T12:51:57.388Z,2.01
2023-01-20T12:54:56.865Z,1.85
2023-01-20T13:00:59.161Z,1.75
2023-01-20T13:04:09.862Z,1.97
2023-01-20T13:06:49.677Z,1.72
2023-01-20T13:09:41.767Z,1.99
2023-01-20T13:12:37.592Z,1.86
2023-01-20T13:15:27.091Z,2.00
2023-01-20T13:18:09.918Z,1.50
2023-01-20T13:20:40.964Z,1.70
2023-01-20T13:23:14.272Z,1.97
2023-01-20T13:25:42.407Z,1.97
2023-01-20T13:28:19.174Z,1.67
2023-01-20T13:30:56.178Z,1.90
2023-01-20T13:34:15.064Z,1.92
2023-01-20T13:37:04.889Z,1.99
2023-01-20T13:39:42.357Z,2.01
2023-01-20T13:42:30.910Z,2.02
2023-01-20T13:48:08.898Z,2.02
2023-01-20T13:50:44.263Z,1.86
2023-01-20T13:53:11.015Z,2.00
2023-01-20T13:55:47.500Z,2.03
2023-01-20T13:58:30.040Z,1.56
2023-01-20T14:01:17.147Z,1.78
2023-01-20T14:07:32.449Z,1.64
2023-01-20T14:10:16.086Z,2.01
2023-01-20T14:13:01.556Z,2.11
2023-01-20T14:15:52.861Z,1.76
2023-01-20T14:18:28.224Z,1.70
2023-01-20T14:25:14.282Z,1.78
2023-01-20T14:28:04.099Z,1.97
2023-01-20T14:31:05.940Z,1.67
2023-01-20T14:34:03.373Z,1.77
2023-01-20T14:36:59.882Z,1.92
2023-01-20T14:40:01.843Z,1.53
2023-01-20T14:43:09.310Z,1.81
2023-01-20T14:46:18.254Z,1.47
2023-01-20T14:48:59.995Z,1.79
2023-01-20T14:51:42.921Z,1.60
2023-01-20T14:54:43.610Z,1.86
2023-01-20T14:57:25.852Z,1.22
2023-01-20T15:00:14.940Z,1.50
2023-01-20T15:02:49.215Z,1.65
2023-01-20T15:05:28.149Z,1.49
2023-01-20T15:08:27.082Z,1.55
2023-01-20T15:11:12.870Z,1.56
2023-01-20T15:13:41.261Z,1.50
2023-01-20T15:16:24.888Z,1.40
2023-01-20T15:19:23.217Z,1.34
2023-01-20T15:22:10.919Z,1.29
2023-01-20T15:24:40.392Z,0.84
2023-01-20T15:27:24.702Z,1.18
2023-01-20T15:30:01.824Z,1.14
2023-01-20T15:32:31.492Z,0.58
2023-01-20T15:34:58.598Z,0.61
2023-01-20T15:37:31.597Z,0.71
2023-01-20T15:40:01.829Z,0.80
2023-01-20T15:42:38.609Z,0.66
2023-01-20T15:45:11.763Z,0.69
2023-01-20T15:47:38.693Z,0.49
2023-01-20T15:50:19.974Z,0.85
2023-01-20T15:52:46.883Z,0.88
2023-01-20T15:55:18.311Z,0.96
2023-01-20T15:57:48.068Z,1.08
2023-01-20T16:00:20.995Z,1.09
2023-01-20T16:02:48.076Z,1.06
2023-01-20T16:05:18.673Z,0.93
2023-01-20T16:07:47.898Z,1.02
2023-01-20T16:10:19.031Z,1.03
2023-01-20T16:12:46.591Z,0.92
2023-01-20T16:15:15.688Z,0.56
2023-01-20T16:17:42.755Z,0.80
2023-01-20T16:20:20.122Z,0.82
2023-01-20T16:22:46.714Z,0.77
2023-01-20T16:25:13.491Z,0.73
2023-01-20T16:27:40.210Z,0.66
2023-01-20T16:30:07.303Z,0.63
2023-01-20T16:32:33.932Z,0.58
2023-01-20T16:35:00.643Z,0.57
2023-01-20T16:37:27.271Z,0.59
2023-01-20T16:39:53.990Z,0.47
2023-01-20T16:42:21.128Z,0.55
2023-01-20T16:44:50.863Z,0.58
2023-01-20T16:47:22.512Z,0.33
2023-01-20T16:49:49.109Z,0.44
2023-01-20T16:52:16.278Z,0.58
2023-01-20T16:54:43.903Z,0.65
2023-01-20T16:57:10.819Z,0.66
2023-01-20T16:59:37.419Z,0.50
2023-01-20T17:02:04.147Z,0.62
2023-01-20T17:04:31.176Z,0.66
2023-01-20T17:06:57.799Z,0.63
2023-01-20T17:09:24.493Z,0.60
2023-01-20T17:11:51.097Z,0.52
2023-01-20T17:14:17.715Z,0.55
2023-01-20T17:16:44.503Z,0.48
2023-01-20T17:19:11.180Z,0.34
2023-01-20T17:21:39.336Z,0.09
2023-01-20T17:24:06.708Z,-0.01
2023-01-20T17:26:33.907Z,-0.23
2023-01-20T17:29:03.649Z,-0.29
2023-01-20T17:31:33.535Z,-0.30
2023-01-20T17:34:00.618Z,-0.35
2023-01-20T17:36:27.300Z,-0.36
2023-01-20T17:38:56.414Z,-0.26
2023-01-20T17:41:23.512Z,-0.30
2023-01-20T17:43:50.117Z,-0.24
2023-01-20T17:46:21.525Z,-0.13
2023-01-20T17:48:48.918Z,-0.33
2023-01-20T17:51:18.417Z,0.03
2023-01-20T17:53:45.521Z,-0.24
2023-01-20T17:56:13.983Z,0.01
2023-01-20T17:58:42.267Z,-0.10
2023-01-20T18:01:27.909Z,-0.08
2023-01-20T18:03:56.825Z,-0.26
2023-01-20T18:06:25.037Z,-0.37
2023-01-20T18:08:55.206Z,-0.52
2023-01-20T18:11:23.159Z,-0.71
2023-01-20T18:13:52.407Z,-0.90
2023-01-20T18:16:21.012Z,-0.90
2023-01-20T18:18:48.768Z,-0.94
2023-01-20T18:21:18.976Z,-0.95
2023-01-20T18:23:46.949Z,-0.86
2023-01-20T18:26:15.648Z,-0.83
2023-01-20T18:28:43.338Z,-0.85
2023-01-20T18:31:12.759Z,-0.75
2023-01-20T18:33:44.318Z,-0.70
2023-01-20T18:36:15.037Z,-0.67
2023-01-20T18:38:50.797Z,-0.67
2023-01-20T18:41:17.832Z,-0.67
2023-01-20T18:43:44.608Z,-0.78
2023-01-20T18:46:11.626Z,-0.90
2023-01-20T18:48:39.836Z,-0.98
2023-01-20T18:51:07.615Z,-0.99
2023-01-20T18:53:34.352Z,-1.08
2023-01-20T18:56:07.122Z,-1.12
2023-01-20T18:59:44.355Z,-1.21
